aviador You're here:

PHHI Decoded Metar

WHEELER AFB. in HI, USA OAHU ISL.
Report Time2018-05-28 04:56:00
UTC Time2018-05-28 05:11:52
Flight Rules vfr VFR
Wind020° at 06 kt
W.Decomp.*RWY 06: 3.8 kt HW 4.7 kt LCW
W.Rank020° ranks 17
Current wind is below 020° avg. (6.2)
Visibility9999 m
Phenomena:N/A
Clouds:Few 190 Hf
Expected CloudBase > 1,600 ft AGL from Temp-Dew spread
CeilingNone
Temp22°C (ISA +9)
Dew Point18°C (78% RH)
QNH1015 hPa
Density Alt2,054 ft
Elevation837 ft
Report Wrong Elevation
Raw Report
PHHI 280456Z AUTO 02006KT 10SM FEW190 22/18 A2998 RMK AO2 SLP145
T02230183 $=

Extra information for PHHI:More info

Metar Taf Metar & Taf Last 4 Metars F.Rules Stats Wind Profile Meteogram Temp Stats Airport Information Weather charts Add Link Nearby VenuesMetar ALERT Operation Metar Decoded Social comments